Latest Coastal Weather Observations for Truscott

IDD60701

Issued at 9:21 am CST Thursday 3 September 2015 (issued every 10 minutes, with the page automatically refreshed every 10 minutes)

About coastal observations | Map of coastal stations | Coastal observations for NT | Marine services | Other Formats
Station Details ID: 001020 Name: TRUSCOTT Lat: -14.09 Lon: 126.39 Height: 51.0 m
Data from the previous 72 hours. | See also: Recent months at Truscott
Date/Time
CST
Temp

°C
Wind Pressure Rain
since 9am
mm
Weather Cloud Vis
km
Sea
Height
m
Swell
Dir
 
Speed
knots
Gust
knots
hPa Trend Height
m
Period
s
Dir
03/09:00am 27.2 SW 5 7 1016.0 - 0.0 - - 10 - - - -
03/08:30am 25.7 SW 7 9 1015.7 - 0.0 - - 10 - - - -
03/08:00am 24.4 SW 8 11 1015.4 - 0.0 - - 10 - - - -
03/07:30am 23.4 SW 8 10 1014.9 - 0.0 - - 10 - - - -
03/07:00am 23.2 SW 8 11 1014.9 - 0.0 - - 10 - - - -
03/06:30am 22.9 SW 7 8 1014.6 - 0.0 - - 10 - - - -
03/06:00am 23.0 SW 8 10 1014.3 - 0.0 - - 10 - - - -
03/05:30am 22.8 SW 7 8 1014.2 - 0.0 - - 10 - - - -
03/05:00am 23.5 SW 7 8 1014.2 - 0.0 - - 10 - - - -
03/04:30am 23.5 SW 6 8 1013.7 - 0.0 - - 9 - - - -
03/04:00am 23.8 SW 7 10 1014.2 - 0.0 - - 9 - - - -
03/03:30am 23.5 SW 7 9 1014.3 - 0.0 - - 10 - - - -
03/03:00am 24.0 SW 7 9 1014.5 - 0.0 - - 10 - - - -
03/02:30am 23.9 WSW 7 9 1014.8 - 0.0 - - 10 - - - -
03/02:00am 24.2 WSW 6 9 1015.0 - 0.0 - - 10 - - - -
03/01:30am 24.2 WSW 6 8 1015.0 - 0.0 - - 10 - - - -
03/01:00am 24.2 WSW 6 8 1015.7 - 0.0 - - 9 - - - -
03/12:30am 24.2 WSW 5 8 1015.9 - 0.0 - - 10 - - - -
03/12:00am 24.5 SW 5 7 1016.1 - 0.0 - - 10 - - - -
 
Date/Time
CST
Temp

°C
Wind Pressure Rain
since 9am
mm
Weather Cloud Vis
km
Sea
Height
m
Swell
Dir
 
Speed
knots
Gust
knots
hPa Trend Height
m
Period
s
Dir
02/11:30pm 24.7 W 5 7 1015.8 - 0.0 - - 10 - - - -
02/11:00pm 24.8 W 5 7 1015.8 - 0.0 - - 10 - - - -
02/10:57pm 24.8 W 5 7 1015.7 - 0.0 - - 10 - - - -
02/10:41pm 24.9 W 6 8 1015.7 - 0.0 - - 5 - - - -
02/10:30pm 24.9 W 6 7 1015.3 - 0.0 - - 10 - - - -
02/10:00pm 25.0 W 5 6 1015.6 - 0.0 - - 10 - - - -
02/09:30pm 25.2 W 5 7 1015.3 - 0.0 - - 7 - - - -
02/09:00pm 25.7 W 5 8 1015.0 - 0.0 - - 10 - - - -
02/08:30pm 26.1 W 6 8 1014.6 - 0.0 - - 7 - - - -
02/08:00pm 26.6 W 5 7 1014.0 - 0.0 - - 10 - - - -
02/07:30pm 26.8 WNW 6 9 1013.1 - 0.0 - - 10 - - - -
02/07:00pm 27.6 NW 7 10 1013.3 - 0.0 - - 10 - - - -
02/06:30pm 29.2 WNW 9 13 1012.9 - 0.0 - - 10 - - - -
02/06:00pm 30.2 W 7 13 1012.6 - 0.0 - - 10 - - - -
02/05:30pm 30.6 WNW 8 13 1012.5 - 0.0 - - 10 - - - -
02/05:00pm 31.4 WNW 9 13 1012.3 - 0.0 - - 10 - - - -
02/04:30pm 31.1 WNW 9 13 1011.8 - 0.0 - - 10 - - - -
02/04:00pm 32.0 W 10 15 1012.3 - 0.0 - - 10 - - - -
02/03:30pm 31.4 WNW 9 13 1012.6 - 0.0 - - 10 - - - -
02/03:00pm 32.0 W 9 13 1012.8 - 0.0 - - 10 - - - -
02/02:30pm 31.9 WNW 9 13 1013.0 - 0.0 - - 10 - - - -
02/02:00pm 31.2 WNW 9 13 1013.3 - 0.0 - - 10 - - - -
02/01:30pm 31.5 WNW 9 13 1013.2 - 0.0 - - 10 - - - -
02/01:00pm 31.0 WNW 9 15 1014.2 - 0.0 - - 10 - - - -
02/12:30pm 31.4 W 6 9 1014.7 - 0.0 - - 10 - - - -
02/12:00pm 30.4 W 6 10 1015.3 - 0.0 - - 10 - - - -
02/11:30am 29.7 SW 5 8 1015.8 - 0.0 - - 10 - - - -
02/11:00am 28.6 SSW 6 8 1016.1 - 0.0 - - 10 - - - -
02/10:30am 27.6 SSW 7 12 1015.9 - 0.0 - - 10 - - - -
02/10:22am 27.3 SSW 7 11 1016.3 - 0.0 - - 10 - - - -
02/10:07am 27.0 SSW 8 13 1016.3 - 0.0 - - 5 - - - -
02/10:00am 27.0 SW 8 13 1016.2 - 0.0 - - 10 - - - -
02/09:30am 26.2 SW 7 11 1016.2 - 0.0 - - 10 - - - -
02/09:00am 24.7 SW 7 9 1016.1 - 0.0 - - 10 - - - -
02/08:30am 23.7 SW 6 8 1015.7 - 0.0 - - 10 - - - -
02/08:00am 22.4 SSW 5 6 1015.4 - 0.0 - - 10 - - - -
02/07:30am 21.3 SSW 4 5 1014.8 - 0.0 - - 10 - - - -
02/07:00am 21.2 SSW 4 5 1014.7 - 0.0 - - 10 - - - -
02/06:30am 21.4 SW 5 6 1014.3 - 0.0 - - 10 - - - -
02/06:00am 21.5 SW 5 6 1013.9 - 0.0 - - 10 - - - -
02/05:30am 22.1 SW 5 6 1013.8 - 0.0 - - 10 - - - -
02/05:00am 22.9 W 5 7 1013.8 - 0.0 - - 7 - - - -
02/04:30am 23.2 WSW 6 8 1013.3 - 0.0 - - 10 - - - -
02/04:00am 23.3 WSW 6 7 1013.9 - 0.0 - - 10 - - - -
02/03:30am 23.5 WSW 6 8 1013.9 - 0.0 - - 10 - - - -
02/03:00am 23.5 WSW 5 7 1013.8 - 0.0 - - 10 - - - -
02/02:30am 23.6 WSW 6 8 1014.0 - 0.0 - - 9 - - - -
02/02:09am 23.8 WSW 5 7 1014.1 - 0.0 - - 10 - - - -
02/02:00am 23.9 WSW 5 7 1014.2 - 0.0 - - 8 - - - -
02/01:50am 23.9 WSW 5 7 1014.3 - 0.0 - - 5 - - - -
02/01:30am 24.2 WSW 5 8 1014.0 - 0.0 - - 9 - - - -
02/01:00am 24.4 WSW 6 8 1014.7 - 0.0 - - 10 - - - -
02/12:30am 24.6 WSW 6 8 1014.9 - 0.0 - - 10 - - - -
02/12:00am 24.8 W 6 9 1014.9 - 0.0 - - 10 - - - -
 
Date/Time
CST
Temp

°C
Wind Pressure Rain
since 9am
mm
Weather Cloud Vis
km
Sea
Height
m
Swell
Dir
 
Speed
knots
Gust
knots
hPa Trend Height
m
Period
s
Dir
01/11:30pm 24.7 W 6 8 1014.8 - 0.0 - - 10 - - - -
01/11:00pm 24.9 W 7 10 1014.8 - 0.0 - - 10 - - - -
01/10:30pm 24.8 W 6 8 1014.2 - 0.0 - - 10 - - - -
01/10:00pm 25.1 W 8 11 1014.4 - 0.0 - - 10 - - - -
01/09:30pm 25.0 W 8 11 1014.2 - 0.0 - - 8 - - - -
01/09:00pm 25.2 W 8 10 1014.0 - 0.0 - - 10 - - - -
01/08:30pm 25.4 W 7 9 1013.7 - 0.0 - - 10 - - - -
01/08:00pm 25.7 W 7 9 1013.2 - 0.0 - - 10 - - - -
01/07:30pm 26.1 W 8 11 1012.3 - 0.0 - - 10 - - - -
01/07:00pm 26.8 W 8 11 1012.5 - 0.0 - - 10 - - - -
01/06:30pm 28.1 W 9 13 1012.3 - 0.0 - - 10 - - - -
01/06:00pm 28.9 W 10 15 1012.1 - 0.0 - - 10 - - - -
01/05:30pm 29.7 W 10 16 1011.9 - 0.0 - - 10 - - - -
01/05:00pm 30.0 W 11 18 1011.8 - 0.0 - - 10 - - - -
01/04:30pm 30.4 W 11 17 1011.3 - 0.0 - - 10 - - - -
01/04:00pm 30.4 W 10 15 1012.0 - 0.0 - - 10 - - - -
01/03:30pm 30.2 W 11 16 1012.2 - 0.0 - - 10 - - - -
01/03:00pm 30.5 WNW 11 16 1012.4 - 0.0 - - 10 - - - -
01/02:30pm 30.4 W 12 18 1012.8 - 0.0 - - 7 - - - -
01/02:06pm 29.9 W 12 19 1013.1 - 0.0 - - 10 - - - -
01/02:00pm 29.7 W 11 19 1013.1 - 0.0 - - 6 - - - -
01/01:53pm 30.2 W 11 17 1013.2 - 0.0 - - 5 - - - -
01/01:30pm 29.7 W 12 17 1013.1 - 0.0 - - 10 - - - -
01/01:00pm 29.4 WNW 13 17 1014.0 - 0.0 - - 10 - - - -
01/12:30pm 29.2 W 12 17 1014.5 - 0.0 - - 10 - - - -
01/12:00pm 28.8 WNW 10 14 1014.8 - 0.0 - - 10 - - - -
01/11:30am 28.8 WNW 10 17 1015.1 - 0.0 - - 10 - - - -
01/11:00am 28.2 W 9 13 1015.2 - 0.0 - - 10 - - - -
01/10:30am 28.2 W 9 13 1014.9 - 0.0 - - 10 - - - -
01/10:00am 27.7 W 9 14 1015.2 - 0.0 - - 10 - - - -
01/09:30am 27.1 WSW 7 11 1015.2 - 0.0 - - 10 - - - -
01/09:00am 26.3 W 8 13 1015.2 - 0.0 - - 10 - - - -
01/08:30am 25.6 WSW 5 7 1015.0 - 0.0 - - 10 - - - -
01/08:00am 24.3 WSW 5 7 1014.6 - 0.0 - - 10 - - - -
01/07:30am 23.1 SW 4 5 1013.8 - 0.0 - - 10 - - - -
01/07:00am 23.0 SW 4 6 1013.9 - 0.0 - - 9 - - - -
01/06:30am 23.1 WSW 5 6 1013.4 - 0.0 - - 10 - - - -
01/06:00am 23.2 WSW 4 5 1013.2 - 0.0 - - 10 - - - -
01/05:30am 23.2 WSW 4 4 1012.9 - 0.0 - - 9 - - - -
01/05:00am 23.6 SW 4 5 1012.8 - 0.0 - - 10 - - - -
01/04:30am 23.8 SW 5 6 1012.3 - 0.0 - - 10 - - - -
01/04:00am 23.9 SW 4 6 1012.8 - 0.0 - - 10 - - - -
01/03:30am 24.1 WSW 4 5 1013.1 - 0.0 - - 10 - - - -
01/03:00am 24.4 WSW 5 6 1013.1 - 0.0 - - 9 - - - -
01/02:30am 24.6 W 5 7 1013.3 - 0.0 - - 10 - - - -
01/02:00am 24.9 WSW 6 8 1013.6 - 0.0 - - 8 - - - -
01/01:30am 25.0 W 6 8 1013.4 - 0.0 - - 10 - - - -
01/01:00am 25.1 WSW 5 8 1014.2 - 0.0 - - 10 - - - -
01/12:30am 25.4 WSW 7 10 1014.2 - 0.0 - - 7 - - - -
01/12:00am 25.4 WSW 6 9 1014.4 - 0.0 - - 10 - - - -
 
Date/Time
CST
Temp

°C
Wind Pressure Rain
since 9am
mm
Weather Cloud Vis
km
Sea
Height
m
Swell
Dir
 
Speed
knots
Gust
knots
hPa Trend Height
m
Period
s
Dir
31/11:30pm 25.6 W 7 11 1014.4 - 0.0 - - 10 - - - -
31/11:00pm 25.7 W 7 10 1014.4 - 0.0 - - 10 - - - -
31/10:30pm 26.0 W 8 12 1013.8 - 0.0 - - 10 - - - -
31/10:00pm 25.9 W 8 12 1014.3 - 0.0 - - 10 - - - -
31/09:40pm 25.9 W 6 9 1014.2 - 0.0 - - 6 - - - -
31/09:30pm 25.9 W 8 11 1014.1 - 0.0 - - 5 - - - -
31/09:24pm 25.9 W 7 11 1014.1 - 0.0 - - 5 - - - -
31/09:00pm 25.9 W 8 11 1013.9 - 0.0 - - 10 - - - -
31/08:30pm 26.1 W 7 11 1013.7 - 0.0 - - 10 - - - -
31/08:00pm 26.3 W 8 13 1013.5 - 0.0 - - 10 - - - -
31/07:30pm 26.5 W 9 13 1012.7 - 0.0 - - 9 - - - -
31/07:00pm 27.0 W 11 15 1013.1 - 0.0 - - 10 - - - -
31/06:30pm 28.0 W 11 15 1012.8 - 0.0 - - 10 - - - -
31/06:00pm 28.9 WNW 9 12 1012.7 - 0.0 - - 10 - - - -
31/05:30pm 30.2 WNW 10 14 1012.5 - 0.0 - - 10 - - - -
31/05:00pm 30.4 NW 9 14 1012.3 - 0.0 - - 10 - - - -
31/04:30pm 31.1 NW 9 15 1011.7 - 0.0 - - 10 - - - -
31/04:00pm 31.6 NW 8 14 1012.4 - 0.0 - - 8 - - - -
31/03:30pm 31.2 NNW 9 15 1012.6 - 0.0 - - 10 - - - -
31/03:00pm 31.0 WNW 10 14 1013.0 - 0.0 - - 9 - - - -
31/02:30pm 30.5 NNW 10 14 1013.5 - 0.0 - - 10 - - - -
31/02:00pm 30.4 NNW 10 15 1013.7 - 0.0 - - 10 - - - -
31/01:30pm 29.3 N 12 16 1013.6 - 0.0 - - 10 - - - -
31/01:00pm 29.7 N 11 15 1014.4 - 0.0 - - 10 - - - -
31/12:30pm 30.2 NNW 10 14 - - 0.0 - - - - - - -
31/12:00pm 31.0 NW 9 13 1015.2 - 0.0 - - 10 - - - -
31/11:30am 30.3 W 7 11 1015.3 - 0.0 - - 10 - - - -
31/11:00am 29.9 WSW 7 10 1015.6 - 0.0 - - 10 - - - -

Other Formats:

Comma delimited format used in spreadsheet applications
http://www.bom.gov.au/fwo/IDD60701/IDD60701.95101.axf

JavaScript Object Notation format (JSON) in row-major order
http://www.bom.gov.au/fwo/IDD60701/IDD60701.95101.json